createdAt,value
2019-03-22T00:01:22.499Z,2.10
2019-03-22T00:06:08.647Z,2.50
2019-03-22T00:10:54.978Z,2.50
2019-03-22T00:15:42.493Z,2.30
2019-03-22T00:20:29.203Z,2.20
2019-03-22T00:25:15.719Z,1.80
2019-03-22T00:30:20.974Z,1.40
2019-03-22T00:35:07.811Z,1.50
2019-03-22T00:40:13.127Z,1.50
2019-03-22T00:44:59.389Z,1.60
2019-03-22T00:49:45.814Z,1.60
2019-03-22T00:54:32.194Z,1.90
2019-03-22T00:59:18.562Z,1.70
2019-03-22T01:04:05.314Z,1.10
2019-03-22T01:08:51.867Z,1.00
2019-03-22T01:13:38.410Z,1.10
2019-03-22T01:18:24.740Z,1.10
2019-03-22T01:23:10.970Z,1.00
2019-03-22T01:27:57.476Z,1.00
2019-03-22T01:32:43.796Z,0.90
2019-03-22T01:37:30.272Z,0.70
2019-03-22T01:42:16.841Z,0.70
2019-03-22T01:47:03.189Z,1.20
2019-03-22T01:51:49.389Z,1.20
2019-03-22T01:56:36.000Z,1.00
2019-03-22T02:01:22.167Z,0.50
2019-03-22T02:06:08.484Z,0.60
2019-03-22T02:10:54.857Z,1.00
2019-03-22T02:15:41.361Z,0.70
2019-03-22T02:20:27.675Z,0.60
2019-03-22T02:25:14.394Z,0.70
2019-03-22T02:30:00.899Z,0.80
2019-03-22T02:34:47.316Z,0.50
2019-03-22T02:39:33.647Z,0.50
2019-03-22T02:44:20.212Z,0.40
2019-03-22T02:49:06.474Z,0.40
2019-03-22T02:53:52.787Z,0.40
2019-03-22T02:58:39.038Z,0.60
2019-03-22T03:03:25.365Z,0.80
2019-03-22T03:08:11.663Z,0.50
2019-03-22T03:12:57.973Z,0.30
2019-03-22T03:17:44.668Z,0.00
2019-03-22T03:22:31.092Z,-0.10
2019-03-22T03:27:17.378Z,-0.30
2019-03-22T03:32:03.723Z,-0.10
2019-03-22T03:36:50.002Z,0.20
2019-03-22T03:41:36.396Z,0.10
2019-03-22T03:46:22.796Z,0.00
2019-03-22T03:51:09.090Z,-0.10
2019-03-22T03:55:55.598Z,-0.10
2019-03-22T04:00:42.460Z,-0.30
2019-03-22T04:05:28.723Z,-0.30
2019-03-22T04:10:15.361Z,-0.50
2019-03-22T04:15:01.531Z,0.00
2019-03-22T04:19:47.816Z,0.00
2019-03-22T04:24:34.010Z,0.00
2019-03-22T04:29:20.602Z,0.10
2019-03-22T04:34:06.828Z,-0.10
2019-03-22T04:38:53.072Z,0.00
2019-03-22T04:43:39.423Z,0.10
2019-03-22T04:48:30.827Z,-0.20
2019-03-22T04:53:22.029Z,-0.40
2019-03-22T04:58:10.524Z,-0.60
2019-03-22T05:02:57.292Z,-0.80
2019-03-22T05:07:44.769Z,-0.60
2019-03-22T05:12:31.811Z,-0.50
2019-03-22T05:17:19.214Z,-0.60
2019-03-22T05:22:07.423Z,-0.80
2019-03-22T05:26:56.112Z,-1.00
2019-03-22T05:32:00.669Z,-0.80
2019-03-22T05:36:46.884Z,-0.90
2019-03-22T05:41:33.535Z,-0.90
2019-03-22T05:46:20.012Z,-0.90
2019-03-22T05:51:06.432Z,-0.70
2019-03-22T05:55:53.207Z,-0.60
2019-03-22T06:00:39.493Z,-0.80
2019-03-22T06:05:25.856Z,-0.80
2019-03-22T06:10:12.517Z,-0.90
2019-03-22T06:14:58.807Z,-0.60
2019-03-22T06:19:45.110Z,-0.50
2019-03-22T06:24:31.355Z,-0.60
2019-03-22T06:29:17.760Z,-0.50
2019-03-22T06:34:04.218Z,-0.40
2019-03-22T06:38:50.518Z,-0.50
2019-03-22T06:43:36.995Z,-0.50
2019-03-22T06:48:23.394Z,-0.70
2019-03-22T06:53:09.621Z,-0.50
2019-03-22T06:57:55.928Z,-0.30
2019-03-22T07:02:42.180Z,0.50
2019-03-22T07:07:28.443Z,1.60
2019-03-22T07:12:14.796Z,2.30
2019-03-22T07:17:01.354Z,2.90
2019-03-22T07:21:47.631Z,3.50
2019-03-22T07:26:34.098Z,4.30
2019-03-22T07:31:20.269Z,5.00
2019-03-22T07:36:06.640Z,5.60
2019-03-22T07:40:52.980Z,6.30
2019-03-22T07:45:39.369Z,7.20
2019-03-22T07:50:25.850Z,7.40
2019-03-22T07:55:12.437Z,7.70
2019-03-22T07:59:58.811Z,8.10
2019-03-22T08:04:45.248Z,8.50
2019-03-22T08:09:31.638Z,8.60
2019-03-22T08:14:17.968Z,8.10
2019-03-22T08:19:04.642Z,8.40
2019-03-22T08:23:50.940Z,9.10
2019-03-22T08:28:37.253Z,9.80
2019-03-22T08:33:23.531Z,10.00
2019-03-22T08:38:09.865Z,10.60
2019-03-22T08:42:56.275Z,11.50
2019-03-22T08:48:01.151Z,12.00
2019-03-22T08:52:47.456Z,12.30
2019-03-22T08:57:33.749Z,12.70
2019-03-22T09:02:20.077Z,12.70
2019-03-22T09:07:06.277Z,13.20
2019-03-22T09:11:52.491Z,14.20
2019-03-22T09:16:38.816Z,14.20
2019-03-22T09:21:25.100Z,15.00
2019-03-22T09:26:11.475Z,15.30
2019-03-22T09:31:09.890Z,15.10
2019-03-22T09:35:45.580Z,16.40
2019-03-22T09:40:31.833Z,16.10
2019-03-22T09:45:18.528Z,15.80
2019-03-22T09:50:05.664Z,16.80
2019-03-22T09:54:51.958Z,17.40
2019-03-22T09:59:38.386Z,17.20
2019-03-22T10:04:24.683Z,18.70
2019-03-22T10:09:11.051Z,18.20
2019-03-22T10:13:57.371Z,18.30
2019-03-22T10:18:43.678Z,19.40
2019-03-22T10:23:29.947Z,20.20
2019-03-22T10:28:16.242Z,20.50
2019-03-22T10:33:02.520Z,20.00
2019-03-22T10:38:15.962Z,20.30
2019-03-22T10:42:55.486Z,20.10
2019-03-22T10:47:41.752Z,21.00
2019-03-22T10:52:28.122Z,21.70
2019-03-22T10:57:14.407Z,20.80
2019-03-22T11:02:03.487Z,21.70
2019-03-22T11:06:48.700Z,21.70
2019-03-22T11:11:35.392Z,22.80
2019-03-22T11:16:21.813Z,21.90
2019-03-22T11:21:08.692Z,22.30
2019-03-22T11:26:03.871Z,23.30
2019-03-22T11:30:43.422Z,24.00
2019-03-22T11:35:30.147Z,22.40
2019-03-22T11:40:35.548Z,23.60
2019-03-22T11:45:24.676Z,23.10
2019-03-22T11:50:11.683Z,22.40
2019-03-22T11:54:58.118Z,23.80
2019-03-22T11:59:44.527Z,23.30
2019-03-22T12:04:31.290Z,24.00
2019-03-22T12:09:18.047Z,25.20
2019-03-22T12:14:04.741Z,25.30
2019-03-22T12:18:51.331Z,24.50
2019-03-22T12:23:37.909Z,22.60
2019-03-22T12:28:24.418Z,24.10
2019-03-22T12:33:11.636Z,25.10
2019-03-22T12:37:59.444Z,26.70
2019-03-22T12:42:46.033Z,27.20
2019-03-22T12:47:32.746Z,26.60
2019-03-22T12:52:19.606Z,26.40
2019-03-22T12:57:06.129Z,25.70
2019-03-22T13:01:52.709Z,24.50
2019-03-22T13:06:39.380Z,26.00
2019-03-22T13:11:26.424Z,26.00
2019-03-22T13:16:14.373Z,25.00
2019-03-22T13:21:00.868Z,25.40
2019-03-22T13:25:48.046Z,27.00
2019-03-22T13:30:38.657Z,27.20
2019-03-22T13:35:25.333Z,28.10
2019-03-22T13:40:12.202Z,28.20
2019-03-22T13:44:58.963Z,27.20
2019-03-22T13:49:45.455Z,26.30
2019-03-22T13:54:32.107Z,27.50
2019-03-22T13:59:18.916Z,27.90
2019-03-22T14:04:05.520Z,26.90
2019-03-22T14:08:52.027Z,27.80
2019-03-22T14:13:39.806Z,29.00
2019-03-22T14:18:26.462Z,28.30
2019-03-22T14:23:13.164Z,27.20
2019-03-22T14:27:59.649Z,28.00
2019-03-22T14:32:48.937Z,29.60
2019-03-22T14:37:35.639Z,29.70
2019-03-22T14:42:22.402Z,29.50
2019-03-22T14:47:08.988Z,29.10
2019-03-22T14:51:55.620Z,30.00
2019-03-22T14:56:42.129Z,29.50
2019-03-22T15:01:28.404Z,29.90
2019-03-22T15:06:14.685Z,29.00
2019-03-22T15:11:02.418Z,29.40
2019-03-22T15:16:06.549Z,29.40
2019-03-22T15:21:12.019Z,30.60
2019-03-22T15:26:35.699Z,30.30
2019-03-22T15:31:38.092Z,30.70
2019-03-22T15:36:46.231Z,30.00
2019-03-22T15:41:33.908Z,29.10
2019-03-22T15:46:20.241Z,28.40
2019-03-22T15:51:06.579Z,26.30
2019-03-22T15:55:53.016Z,24.10
2019-03-22T16:00:39.391Z,22.30
2019-03-22T16:05:25.871Z,21.30
2019-03-22T16:10:12.454Z,22.20
2019-03-22T16:14:59.226Z,25.30
2019-03-22T16:19:45.800Z,27.30
2019-03-22T16:24:32.389Z,27.90
2019-03-22T16:29:18.892Z,28.10
2019-03-22T16:34:06.355Z,26.60
2019-03-22T16:38:52.819Z,25.00
2019-03-22T16:43:40.699Z,23.40
2019-03-22T16:48:27.087Z,22.10
2019-03-22T16:53:13.511Z,21.30
2019-03-22T16:58:00.144Z,19.70
2019-03-22T17:02:46.758Z,18.90
2019-03-22T17:07:33.144Z,18.20
2019-03-22T17:12:19.509Z,17.90
2019-03-22T17:17:06.065Z,16.60
2019-03-22T17:21:52.404Z,15.40
2019-03-22T17:26:38.722Z,14.40
2019-03-22T17:31:25.066Z,13.70
2019-03-22T17:36:11.527Z,13.10
2019-03-22T17:40:58.098Z,12.50
2019-03-22T17:45:44.479Z,12.10
2019-03-22T17:50:30.865Z,12.00
2019-03-22T17:55:18.272Z,12.00
2019-03-22T18:00:05.362Z,11.70
2019-03-22T18:04:51.953Z,11.50
2019-03-22T18:09:38.303Z,11.10
2019-03-22T18:14:26.896Z,11.00
2019-03-22T18:19:13.009Z,10.90
2019-03-22T18:23:59.261Z,10.70
2019-03-22T18:28:45.973Z,10.40
2019-03-22T18:33:32.400Z,10.40
2019-03-22T18:38:18.776Z,10.20
2019-03-22T18:43:05.220Z,10.20
2019-03-22T18:47:51.680Z,10.00
2019-03-22T18:52:38.449Z,9.90
2019-03-22T18:57:24.906Z,9.70
2019-03-22T19:02:11.295Z,9.60
2019-03-22T19:06:58.148Z,9.50
2019-03-22T19:11:44.628Z,9.20
2019-03-22T19:16:31.151Z,9.20
2019-03-22T19:21:17.770Z,8.90
2019-03-22T19:26:04.537Z,8.80
2019-03-22T19:30:51.523Z,8.50
2019-03-22T19:35:38.007Z,8.60
2019-03-22T19:40:24.573Z,8.60
2019-03-22T19:45:12.818Z,8.50
2019-03-22T19:49:59.655Z,8.20
2019-03-22T19:54:46.227Z,8.00
2019-03-22T19:59:32.623Z,8.40
2019-03-22T20:04:19.778Z,8.90
2019-03-22T20:09:10.112Z,8.80
2019-03-22T20:13:56.805Z,8.60
2019-03-22T20:18:43.603Z,8.20
2019-03-22T20:23:30.249Z,8.00
2019-03-22T20:28:16.868Z,7.80
2019-03-22T20:33:03.199Z,7.50
2019-03-22T20:37:49.764Z,7.20
2019-03-22T20:42:36.375Z,7.10
2019-03-22T20:47:22.831Z,6.90
2019-03-22T20:52:09.692Z,6.90
2019-03-22T20:56:56.330Z,6.60
2019-03-22T21:01:42.713Z,6.40
2019-03-22T21:06:29.376Z,6.30
2019-03-22T21:11:16.260Z,6.30
2019-03-22T21:16:02.908Z,6.30
2019-03-22T21:20:49.649Z,6.40
2019-03-22T21:25:36.277Z,6.40
2019-03-22T21:30:23.006Z,6.40
2019-03-22T21:35:21.316Z,6.20
2019-03-22T21:39:58.028Z,6.00
2019-03-22T21:44:44.367Z,5.90
2019-03-22T21:49:31.016Z,5.80
2019-03-22T21:54:17.556Z,5.80
2019-03-22T21:59:04.020Z,5.90
2019-03-22T22:03:50.368Z,6.00
2019-03-22T22:08:38.314Z,6.20
2019-03-22T22:13:24.681Z,6.60
2019-03-22T22:18:11.049Z,6.60
2019-03-22T22:22:58.813Z,6.70
2019-03-22T22:27:45.417Z,6.40
2019-03-22T22:32:31.807Z,6.00
2019-03-22T22:37:18.584Z,5.60
2019-03-22T22:42:04.994Z,5.40
2019-03-22T22:46:51.393Z,5.30
2019-03-22T22:51:37.847Z,5.20
2019-03-22T22:56:24.178Z,5.10
2019-03-22T23:01:10.601Z,5.40
2019-03-22T23:05:56.932Z,5.40
2019-03-22T23:10:43.239Z,4.80
2019-03-22T23:15:29.896Z,4.70
2019-03-22T23:20:16.255Z,4.60
2019-03-22T23:25:02.673Z,4.50
2019-03-22T23:29:48.882Z,4.60
2019-03-22T23:34:37.773Z,4.50
2019-03-22T23:39:24.042Z,4.30
2019-03-22T23:44:10.366Z,4.20
2019-03-22T23:48:56.775Z,4.10
2019-03-22T23:53:43.096Z,3.70
2019-03-22T23:58:29.604Z,3.80
